Time,TemperatureF,DewpointF,PressureIn,WindDirection,WindDirectionDegrees,WindSpeedMPH,WindSpeedGustMPH,Humidity,HourlyPrecipIn,Conditions,Clouds,dailyrainin,SolarRadiationWatts/m^2,SoftwareType,DateUTC
2013-10-15 00:12:00,45.0,13.0,-100.00,North,2,12.0,15.0,27,0.00,,,0.00,3.000000,,2013-10-15 07:12:00,
2013-10-15 00:42:00,45.0,6.0,-100.00,North,2,11.0,15.0,20,0.00,,,0.00,3.000000,,2013-10-15 07:42:00,
2013-10-15 00:52:00,45.0,6.0,-100.00,North,2,11.0,15.0,20,0.00,,,0.00,3.000000,,2013-10-15 07:52:00,
2013-10-15 01:02:00,45.0,6.0,-100.00,North,2,11.0,15.0,20,0.00,,,0.00,3.000000,,2013-10-15 08:02:00,
2013-10-15 01:12:00,45.0,6.0,-100.00,North,2,11.0,15.0,20,0.00,,,0.00,3.000000,,2013-10-15 08:12:00,
2013-10-15 01:42:00,44.0,8.0,-100.00,North,2,11.0,15.0,22,0.00,,,0.00,3.000000,,2013-10-15 08:42:00,
2013-10-15 01:52:00,44.0,8.0,-100.00,North,2,11.0,15.0,22,0.00,,,0.00,3.000000,,2013-10-15 08:52:00,
2013-10-15 02:02:00,44.0,8.0,-100.00,North,2,11.0,15.0,22,0.00,,,0.00,3.000000,,2013-10-15 09:02:00,
2013-10-15 02:12:00,44.0,8.0,-100.00,North,2,11.0,15.0,22,0.00,,,0.00,3.000000,,2013-10-15 09:12:00,
2013-10-15 02:43:00,41.0,15.0,-100.00,North,2,10.0,14.0,35,0.00,,,0.00,3.000000,,2013-10-15 09:43:00,
2013-10-15 02:53:00,41.0,15.0,-100.00,North,2,10.0,14.0,35,0.00,,,0.00,3.000000,,2013-10-15 09:53:00,
2013-10-15 03:03:00,41.0,15.0,-100.00,North,2,10.0,14.0,35,0.00,,,0.00,3.000000,,2013-10-15 10:03:00,
2013-10-15 03:12:00,41.0,15.0,-100.00,North,2,10.0,14.0,35,0.00,,,0.00,3.000000,,2013-10-15 10:12:00,
2013-10-15 03:43:00,42.0,14.0,-100.00,North,2,10.0,16.0,32,0.00,,,0.00,3.000000,,2013-10-15 10:43:00,
2013-10-15 03:53:00,42.0,14.0,-100.00,North,2,10.0,16.0,32,0.00,,,0.00,3.000000,,2013-10-15 10:53:00,
2013-10-15 04:02:00,42.0,14.0,-100.00,North,2,10.0,16.0,32,0.00,,,0.00,3.000000,,2013-10-15 11:02:00,
2013-10-15 04:11:00,42.0,14.0,-100.00,North,2,10.0,16.0,32,0.00,,,0.00,3.000000,,2013-10-15 11:11:00,
2013-10-15 04:42:00,43.0,10.0,-100.00,North,2,11.0,18.0,25,0.00,,,0.00,3.000000,,2013-10-15 11:42:00,
2013-10-15 04:52:00,43.0,10.0,-100.00,North,2,11.0,18.0,25,0.00,,,0.00,3.000000,,2013-10-15 11:52:00,
2013-10-15 05:01:00,43.0,10.0,-100.00,North,2,11.0,18.0,25,0.00,,,0.00,3.000000,,2013-10-15 12:01:00,
2013-10-15 05:42:00,44.0,16.0,-100.00,North,2,12.0,18.0,32,0.00,,,0.00,3.000000,,2013-10-15 12:42:00,
2013-10-15 05:52:00,44.0,16.0,-100.00,North,2,12.0,18.0,32,0.00,,,0.00,3.000000,,2013-10-15 12:52:00,
2013-10-15 06:01:00,44.0,16.0,-100.00,North,2,12.0,18.0,32,0.00,,,0.00,3.000000,,2013-10-15 13:01:00,
2013-10-15 06:11:00,44.0,16.0,-100.00,North,2,12.0,18.0,32,0.00,,,0.00,3.000000,,2013-10-15 13:11:00,
2013-10-15 06:42:00,43.0,17.0,-100.00,North,2,13.0,18.0,35,0.00,,,0.00,3.000000,,2013-10-15 13:42:00,
2013-10-15 06:52:00,43.0,17.0,-100.00,North,2,13.0,18.0,35,0.00,,,0.00,3.000000,,2013-10-15 13:52:00,
2013-10-15 07:02:00,43.0,17.0,-100.00,North,2,13.0,18.0,35,0.00,,,0.00,3.000000,,2013-10-15 14:02:00,
2013-10-15 07:11:00,43.0,17.0,-100.00,North,2,13.0,18.0,35,0.00,,,0.00,3.000000,,2013-10-15 14:11:00,
2013-10-15 07:42:00,43.0,18.0,-100.00,North,2,13.0,19.0,36,0.00,,,0.00,7.000000,,2013-10-15 14:42:00,
2013-10-15 07:52:00,43.0,18.0,-100.00,North,2,13.0,19.0,36,0.00,,,0.00,7.000000,,2013-10-15 14:52:00,
2013-10-15 08:01:00,43.0,18.0,-100.00,North,2,13.0,19.0,36,0.00,,,0.00,7.000000,,2013-10-15 15:01:00,
2013-10-15 08:11:00,43.0,18.0,-100.00,North,2,13.0,19.0,36,0.00,,,0.00,7.000000,,2013-10-15 15:11:00,
2013-10-15 08:44:00,46.0,19.0,-100.00,North,2,12.0,19.0,33,0.00,,,0.00,149.000000,,2013-10-15 15:44:00,
2013-10-15 08:53:00,46.0,19.0,-100.00,North,2,12.0,19.0,33,0.00,,,0.00,149.000000,,2013-10-15 15:53:00,
2013-10-15 09:03:00,46.0,19.0,-100.00,North,2,12.0,19.0,33,0.00,,,0.00,149.000000,,2013-10-15 16:03:00,
2013-10-15 09:12:00,46.0,19.0,-100.00,North,2,12.0,19.0,33,0.00,,,0.00,149.000000,,2013-10-15 16:12:00,
2013-10-15 09:43:00,49.0,21.0,-100.00,North,1,12.0,18.0,33,0.00,,,0.00,398.000000,,2013-10-15 16:43:00,
2013-10-15 09:53:00,49.0,21.0,-100.00,North,1,12.0,18.0,33,0.00,,,0.00,398.000000,,2013-10-15 16:53:00,
2013-10-15 10:02:00,49.0,21.0,-100.00,North,1,12.0,18.0,33,0.00,,,0.00,398.000000,,2013-10-15 17:02:00,
2013-10-15 10:12:00,49.0,21.0,-100.00,North,1,12.0,18.0,33,0.00,,,0.00,398.000000,,2013-10-15 17:12:00,
2013-10-15 10:42:00,53.0,24.0,-100.00,North,1,10.0,15.0,32,0.00,,,0.00,614.000000,,2013-10-15 17:42:00,
2013-10-15 10:53:00,53.0,24.0,-100.00,North,1,10.0,15.0,32,0.00,,,0.00,614.000000,,2013-10-15 17:53:00,
2013-10-15 11:02:00,53.0,24.0,-100.00,North,1,10.0,15.0,32,0.00,,,0.00,614.000000,,2013-10-15 18:02:00,
2013-10-15 11:12:00,53.0,24.0,-100.00,North,1,10.0,15.0,32,0.00,,,0.00,614.000000,,2013-10-15 18:12:00,
2013-10-15 11:42:00,58.0,26.0,-100.00,North,1,7.0,14.0,29,0.00,,,0.00,776.000000,,2013-10-15 18:42:00,
2013-10-15 11:52:00,58.0,26.0,-100.00,North,1,7.0,14.0,29,0.00,,,0.00,776.000000,,2013-10-15 18:52:00,
2013-10-15 12:01:00,58.0,26.0,-100.00,North,1,7.0,14.0,29,0.00,,,0.00,776.000000,,2013-10-15 19:01:00,
2013-10-15 12:11:00,58.0,26.0,-100.00,North,1,7.0,14.0,29,0.00,,,0.00,776.000000,,2013-10-15 19:11:00,
2013-10-15 12:42:00,59.0,23.0,-100.00,North,1,8.0,14.0,25,0.00,,,0.00,881.000000,,2013-10-15 19:42:00,
2013-10-15 12:52:00,59.0,23.0,-100.00,North,1,8.0,14.0,25,0.00,,,0.00,881.000000,,2013-10-15 19:52:00,
2013-10-15 13:03:00,59.0,23.0,-100.00,North,1,8.0,14.0,25,0.00,,,0.00,881.000000,,2013-10-15 20:03:00,
2013-10-15 13:12:00,59.0,23.0,-100.00,North,1,8.0,14.0,25,0.00,,,0.00,881.000000,,2013-10-15 20:12:00,
2013-10-15 13:42:00,58.0,22.0,-100.00,North,1,8.0,14.0,25,0.00,,,0.00,912.000000,,2013-10-15 20:42:00,
2013-10-15 13:52:00,58.0,22.0,-100.00,North,1,8.0,14.0,25,0.00,,,0.00,912.000000,,2013-10-15 20:52:00,
2013-10-15 14:02:00,58.0,22.0,-100.00,North,1,8.0,14.0,25,0.00,,,0.00,912.000000,,2013-10-15 21:02:00,
2013-10-15 14:12:00,58.0,22.0,-100.00,North,1,8.0,14.0,25,0.00,,,0.00,912.000000,,2013-10-15 21:12:00,
2013-10-15 14:44:00,58.0,22.0,-100.00,North,1,8.0,15.0,25,0.00,,,0.00,872.000000,,2013-10-15 21:44:00,
2013-10-15 14:54:00,58.0,22.0,-100.00,North,1,8.0,15.0,25,0.00,,,0.00,872.000000,,2013-10-15 21:54:00,
2013-10-15 15:04:00,58.0,22.0,-100.00,North,1,8.0,15.0,25,0.00,,,0.00,872.000000,,2013-10-15 22:04:00,
2013-10-15 15:13:00,58.0,22.0,-100.00,North,1,8.0,15.0,25,0.00,,,0.00,872.000000,,2013-10-15 22:13:00,
2013-10-15 15:43:00,58.0,23.0,-100.00,North,1,9.0,16.0,26,0.00,,,0.00,756.000000,,2013-10-15 22:43:00,
2013-10-15 15:53:00,58.0,23.0,-100.00,North,1,9.0,16.0,26,0.00,,,0.00,756.000000,,2013-10-15 22:53:00,
2013-10-15 16:03:00,58.0,23.0,-100.00,North,1,9.0,16.0,26,0.00,,,0.00,756.000000,,2013-10-15 23:03:00,
2013-10-15 16:12:00,58.0,23.0,-100.00,North,1,9.0,16.0,26,0.00,,,0.00,756.000000,,2013-10-15 23:12:00,
2013-10-15 16:43:00,57.0,22.0,-100.00,North,1,9.0,14.0,26,0.00,,,0.00,580.000000,,2013-10-15 23:43:00,
2013-10-15 16:52:00,57.0,22.0,-100.00,North,1,9.0,14.0,26,0.00,,,0.00,580.000000,,2013-10-15 23:52:00,
2013-10-15 17:01:00,57.0,22.0,-100.00,North,1,9.0,14.0,26,0.00,,,0.00,580.000000,,2013-10-16 00:01:00,
2013-10-15 17:12:00,57.0,22.0,-100.00,North,1,9.0,14.0,26,0.00,,,0.00,580.000000,,2013-10-16 00:12:00,
2013-10-15 17:42:00,53.0,21.0,-100.00,North,1,8.0,16.0,28,0.00,,,0.00,358.000000,,2013-10-16 00:42:00,
2013-10-15 17:52:00,53.0,21.0,-100.00,North,1,8.0,16.0,28,0.00,,,0.00,358.000000,,2013-10-16 00:52:00,
2013-10-15 18:02:00,53.0,21.0,-100.00,North,1,8.0,16.0,28,0.00,,,0.00,358.000000,,2013-10-16 01:02:00,
2013-10-15 18:11:00,53.0,21.0,-100.00,North,1,8.0,16.0,28,0.00,,,0.00,358.000000,,2013-10-16 01:11:00,
2013-10-15 18:42:00,49.0,20.0,-100.00,North,1,11.0,16.0,32,0.00,,,0.00,85.000000,,2013-10-16 01:42:00,
2013-10-15 18:52:00,49.0,20.0,-100.00,North,1,11.0,16.0,32,0.00,,,0.00,85.000000,,2013-10-16 01:52:00,
2013-10-15 19:02:00,49.0,20.0,-100.00,North,1,11.0,16.0,32,0.00,,,0.00,85.000000,,2013-10-16 02:02:00,
2013-10-15 19:12:00,49.0,20.0,-100.00,North,1,11.0,16.0,32,0.00,,,0.00,85.000000,,2013-10-16 02:12:00,
2013-10-15 19:42:00,47.0,20.0,-100.00,North,1,10.0,18.0,34,0.00,,,0.00,4.000000,,2013-10-16 02:42:00,
2013-10-15 19:52:00,47.0,20.0,-100.00,North,1,10.0,18.0,34,0.00,,,0.00,4.000000,,2013-10-16 02:52:00,
2013-10-15 20:02:00,47.0,20.0,-100.00,North,1,10.0,18.0,34,0.00,,,0.00,4.000000,,2013-10-16 03:02:00,
2013-10-15 20:11:00,47.0,20.0,-100.00,North,1,10.0,18.0,34,0.00,,,0.00,4.000000,,2013-10-16 03:11:00,
2013-10-15 20:45:00,45.0,15.0,-100.00,North,2,11.0,17.0,30,0.00,,,0.00,3.000000,,2013-10-16 03:45:00,
2013-10-15 20:55:00,45.0,15.0,-100.00,North,2,11.0,17.0,30,0.00,,,0.00,3.000000,,2013-10-16 03:55:00,
2013-10-15 21:04:00,45.0,15.0,-100.00,North,2,11.0,17.0,30,0.00,,,0.00,3.000000,,2013-10-16 04:04:00,
2013-10-15 21:13:00,45.0,15.0,-100.00,North,2,11.0,17.0,30,0.00,,,0.00,3.000000,,2013-10-16 04:13:00,
2013-10-15 21:43:00,46.0,14.0,-100.00,North,2,17.0,22.0,27,0.00,,,0.00,3.000000,,2013-10-16 04:43:00,
2013-10-15 21:54:00,46.0,14.0,-100.00,North,2,17.0,22.0,27,0.00,,,0.00,3.000000,,2013-10-16 04:54:00,
2013-10-15 22:04:00,46.0,14.0,-100.00,North,2,17.0,22.0,27,0.00,,,0.00,3.000000,,2013-10-16 05:04:00,
2013-10-15 22:13:00,46.0,14.0,-100.00,North,2,17.0,22.0,27,0.00,,,0.00,3.000000,,2013-10-16 05:13:00,
2013-10-15 22:43:00,46.0,14.0,-100.00,North,2,14.0,20.0,27,0.00,,,0.00,3.000000,,2013-10-16 05:43:00,
2013-10-15 22:53:00,46.0,14.0,-100.00,North,2,14.0,20.0,27,0.00,,,0.00,3.000000,,2013-10-16 05:53:00,
2013-10-15 23:02:00,46.0,14.0,-100.00,North,2,14.0,20.0,27,0.00,,,0.00,3.000000,,2013-10-16 06:02:00,
2013-10-15 23:12:00,46.0,14.0,-100.00,North,2,14.0,20.0,27,0.00,,,0.00,3.000000,,2013-10-16 06:12:00,
2013-10-15 23:43:00,44.0,11.0,-100.00,North,2,9.0,20.0,26,0.00,,,0.00,3.000000,,2013-10-16 06:43:00,
2013-10-15 23:52:00,44.0,11.0,-100.00,North,2,9.0,20.0,26,0.00,,,0.00,3.000000,,2013-10-16 06:52:00,